sensor_id;sensor_type;location;lat;lon;timestamp;pressure;altitude;pressure_sealevel;temperature
11424;BMP180;5768;51.476;7.210;2022-12-18T00:00:06;101374.00;;;0.40
11424;BMP180;5768;51.476;7.210;2022-12-18T00:05:09;101375.00;;;0.30
11424;BMP180;5768;51.476;7.210;2022-12-18T00:10:13;101384.00;;;0.30
11424;BMP180;5768;51.476;7.210;2022-12-18T00:15:18;101384.00;;;0.30
11424;BMP180;5768;51.476;7.210;2022-12-18T00:20:20;101391.00;;;0.30
11424;BMP180;5768;51.476;7.210;2022-12-18T00:25:27;101389.00;;;0.20
11424;BMP180;5768;51.476;7.210;2022-12-18T00:30:30;101394.00;;;0.30
11424;BMP180;5768;51.476;7.210;2022-12-18T00:35:32;101371.00;;;0.20
11424;BMP180;5768;51.476;7.210;2022-12-18T00:40:36;101380.00;;;0.20
11424;BMP180;5768;51.476;7.210;2022-12-18T00:45:38;101365.00;;;0.20
11424;BMP180;5768;51.476;7.210;2022-12-18T00:50:42;101368.00;;;0.30
11424;BMP180;5768;51.476;7.210;2022-12-18T00:55:46;101376.00;;;0.30
11424;BMP180;5768;51.476;7.210;2022-12-18T01:00:49;101383.00;;;0.40
11424;BMP180;5768;51.476;7.210;2022-12-18T01:05:51;101385.00;;;0.40
11424;BMP180;5768;51.476;7.210;2022-12-18T01:10:54;101382.00;;;0.40
11424;BMP180;5768;51.476;7.210;2022-12-18T01:15:56;101382.00;;;0.40
11424;BMP180;5768;51.476;7.210;2022-12-18T01:20:59;101386.00;;;0.40
11424;BMP180;5768;51.476;7.210;2022-12-18T01:26:07;101386.00;;;0.40
11424;BMP180;5768;51.476;7.210;2022-12-18T01:31:16;101391.00;;;0.40
11424;BMP180;5768;51.476;7.210;2022-12-18T01:36:21;101383.00;;;0.30
11424;BMP180;5768;51.476;7.210;2022-12-18T01:41:31;101391.00;;;0.40
11424;BMP180;5768;51.476;7.210;2022-12-18T01:46:47;101372.00;;;0.40
11424;BMP180;5768;51.476;7.210;2022-12-18T01:51:50;101361.00;;;0.50
11424;BMP180;5768;51.476;7.210;2022-12-18T01:56:56;101370.00;;;0.60
11424;BMP180;5768;51.476;7.210;2022-12-18T02:01:59;101356.00;;;0.60
11424;BMP180;5768;51.476;7.210;2022-12-18T02:07:12;101363.00;;;0.60
11424;BMP180;5768;51.476;7.210;2022-12-18T02:12:21;101358.00;;;0.70
11424;BMP180;5768;51.476;7.210;2022-12-18T02:17:34;101368.00;;;0.70
11424;BMP180;5768;51.476;7.210;2022-12-18T02:23:01;101363.00;;;0.70
11424;BMP180;5768;51.476;7.210;2022-12-18T02:28:13;101355.00;;;0.70
11424;BMP180;5768;51.476;7.210;2022-12-18T02:33:18;101359.00;;;0.80
11424;BMP180;5768;51.476;7.210;2022-12-18T02:38:21;101340.00;;;0.90
11424;BMP180;5768;51.476;7.210;2022-12-18T02:43:25;101338.00;;;0.90
11424;BMP180;5768;51.476;7.210;2022-12-18T02:48:31;101346.00;;;1.00
11424;BMP180;5768;51.476;7.210;2022-12-18T02:53:42;101350.00;;;1.00
11424;BMP180;5768;51.476;7.210;2022-12-18T02:58:57;101360.00;;;1.10
11424;BMP180;5768;51.476;7.210;2022-12-18T03:04:07;101361.00;;;1.10
11424;BMP180;5768;51.476;7.210;2022-12-18T03:09:17;101356.00;;;1.20
11424;BMP180;5768;51.476;7.210;2022-12-18T03:14:23;101345.00;;;1.20
11424;BMP180;5768;51.476;7.210;2022-12-18T03:19:32;101338.00;;;1.30
11424;BMP180;5768;51.476;7.210;2022-12-18T03:24:36;101356.00;;;1.30
11424;BMP180;5768;51.476;7.210;2022-12-18T03:29:48;101347.00;;;1.30
11424;BMP180;5768;51.476;7.210;2022-12-18T03:34:55;101347.00;;;1.40
11424;BMP180;5768;51.476;7.210;2022-12-18T03:40:00;101342.00;;;1.30
11424;BMP180;5768;51.476;7.210;2022-12-18T03:45:12;101334.00;;;1.30
11424;BMP180;5768;51.476;7.210;2022-12-18T03:50:22;101344.00;;;1.20
11424;BMP180;5768;51.476;7.210;2022-12-18T03:55:31;101345.00;;;1.30
11424;BMP180;5768;51.476;7.210;2022-12-18T04:00:36;101334.00;;;1.30
11424;BMP180;5768;51.476;7.210;2022-12-18T04:05:42;101346.00;;;1.30
11424;BMP180;5768;51.476;7.210;2022-12-18T04:10:45;101348.00;;;1.30
11424;BMP180;5768;51.476;7.210;2022-12-18T04:15:49;101332.00;;;1.40
11424;BMP180;5768;51.476;7.210;2022-12-18T04:20:51;101345.00;;;1.40
11424;BMP180;5768;51.476;7.210;2022-12-18T04:25:53;101344.00;;;1.40
11424;BMP180;5768;51.476;7.210;2022-12-18T04:30:57;101336.00;;;1.40
11424;BMP180;5768;51.476;7.210;2022-12-18T04:35:59;101338.00;;;1.40
11424;BMP180;5768;51.476;7.210;2022-12-18T04:41:01;101333.00;;;1.40
11424;BMP180;5768;51.476;7.210;2022-12-18T04:46:07;101334.00;;;1.40
11424;BMP180;5768;51.476;7.210;2022-12-18T04:51:10;101341.00;;;1.40
11424;BMP180;5768;51.476;7.210;2022-12-18T04:56:14;101328.00;;;1.40
11424;BMP180;5768;51.476;7.210;2022-12-18T05:01:19;101315.00;;;1.40
11424;BMP180;5768;51.476;7.210;2022-12-18T05:06:21;101314.00;;;1.50
11424;BMP180;5768;51.476;7.210;2022-12-18T05:11:23;101307.00;;;1.50
11424;BMP180;5768;51.476;7.210;2022-12-18T05:16:27;101313.00;;;1.50
11424;BMP180;5768;51.476;7.210;2022-12-18T05:21:29;101309.00;;;1.50
11424;BMP180;5768;51.476;7.210;2022-12-18T05:26:31;101285.00;;;1.40
11424;BMP180;5768;51.476;7.210;2022-12-18T05:31:34;101288.00;;;1.30
11424;BMP180;5768;51.476;7.210;2022-12-18T05:36:36;101287.00;;;1.20
11424;BMP180;5768;51.476;7.210;2022-12-18T05:41:39;101299.00;;;1.10
11424;BMP180;5768;51.476;7.210;2022-12-18T05:46:42;101304.00;;;1.00
11424;BMP180;5768;51.476;7.210;2022-12-18T05:51:44;101314.00;;;1.00
11424;BMP180;5768;51.476;7.210;2022-12-18T05:56:46;101312.00;;;0.90
11424;BMP180;5768;51.476;7.210;2022-12-18T06:01:50;101311.00;;;0.90
11424;BMP180;5768;51.476;7.210;2022-12-18T06:06:52;101324.00;;;0.90
11424;BMP180;5768;51.476;7.210;2022-12-18T06:11:54;101336.00;;;0.80
11424;BMP180;5768;51.476;7.210;2022-12-18T06:16:57;101349.00;;;0.80
11424;BMP180;5768;51.476;7.210;2022-12-18T06:22:00;101352.00;;;0.80
11424;BMP180;5768;51.476;7.210;2022-12-18T06:27:02;101365.00;;;0.80
11424;BMP180;5768;51.476;7.210;2022-12-18T06:32:06;101367.00;;;0.80
11424;BMP180;5768;51.476;7.210;2022-12-18T06:37:08;101369.00;;;0.70
11424;BMP180;5768;51.476;7.210;2022-12-18T06:42:11;101366.00;;;0.70
11424;BMP180;5768;51.476;7.210;2022-12-18T06:47:14;101348.00;;;0.70
11424;BMP180;5768;51.476;7.210;2022-12-18T06:52:17;101335.00;;;0.80
11424;BMP180;5768;51.476;7.210;2022-12-18T06:57:19;101326.00;;;0.80
11424;BMP180;5768;51.476;7.210;2022-12-18T07:02:23;101322.00;;;0.80
11424;BMP180;5768;51.476;7.210;2022-12-18T07:07:25;101322.00;;;0.80
11424;BMP180;5768;51.476;7.210;2022-12-18T07:12:28;101313.00;;;0.80
11424;BMP180;5768;51.476;7.210;2022-12-18T07:17:31;101318.00;;;0.70
11424;BMP180;5768;51.476;7.210;2022-12-18T07:22:34;101311.00;;;0.70
11424;BMP180;5768;51.476;7.210;2022-12-18T07:27:36;101304.00;;;0.60
11424;BMP180;5768;51.476;7.210;2022-12-18T07:32:40;101317.00;;;0.60
11424;BMP180;5768;51.476;7.210;2022-12-18T07:37:42;101306.00;;;0.60
11424;BMP180;5768;51.476;7.210;2022-12-18T07:42:47;101298.00;;;0.60
11424;BMP180;5768;51.476;7.210;2022-12-18T07:47:51;101299.00;;;0.80
11424;BMP180;5768;51.476;7.210;2022-12-18T07:52:53;101294.00;;;0.80
11424;BMP180;5768;51.476;7.210;2022-12-18T07:57:55;101302.00;;;0.90
11424;BMP180;5768;51.476;7.210;2022-12-18T08:02:59;101313.00;;;1.10
11424;BMP180;5768;51.476;7.210;2022-12-18T08:08:01;101308.00;;;1.30
11424;BMP180;5768;51.476;7.210;2022-12-18T08:13:03;101301.00;;;1.30
11424;BMP180;5768;51.476;7.210;2022-12-18T08:18:07;101306.00;;;1.40
11424;BMP180;5768;51.476;7.210;2022-12-18T08:23:12;101280.00;;;1.40
11424;BMP180;5768;51.476;7.210;2022-12-18T08:28:14;101295.00;;;1.50
11424;BMP180;5768;51.476;7.210;2022-12-18T08:33:18;101266.00;;;1.80
11424;BMP180;5768;51.476;7.210;2022-12-18T08:38:21;101254.00;;;2.00
11424;BMP180;5768;51.476;7.210;2022-12-18T08:43:24;101254.00;;;2.20
11424;BMP180;5768;51.476;7.210;2022-12-18T08:48:45;101260.00;;;2.40
11424;BMP180;5768;51.476;7.210;2022-12-18T08:53:48;101249.00;;;2.60
11424;BMP180;5768;51.476;7.210;2022-12-18T08:58:52;101253.00;;;2.80
11424;BMP180;5768;51.476;7.210;2022-12-18T09:03:56;101259.00;;;3.00
11424;BMP180;5768;51.476;7.210;2022-12-18T09:08:58;101256.00;;;3.20
11424;BMP180;5768;51.476;7.210;2022-12-18T09:14:01;101252.00;;;3.50
11424;BMP180;5768;51.476;7.210;2022-12-18T09:19:05;101240.00;;;3.90
11424;BMP180;5768;51.476;7.210;2022-12-18T09:24:12;101234.00;;;4.10
11424;BMP180;5768;51.476;7.210;2022-12-18T09:29:16;101239.00;;;4.30
11424;BMP180;5768;51.476;7.210;2022-12-18T09:34:20;101245.00;;;4.50
11424;BMP180;5768;51.476;7.210;2022-12-18T09:39:22;101244.00;;;4.80
11424;BMP180;5768;51.476;7.210;2022-12-18T09:44:28;101236.00;;;5.10
11424;BMP180;5768;51.476;7.210;2022-12-18T09:49:39;101243.00;;;5.30
11424;BMP180;5768;51.476;7.210;2022-12-18T09:54:46;101255.00;;;5.40
11424;BMP180;5768;51.476;7.210;2022-12-18T09:59:56;101264.00;;;5.60
11424;BMP180;5768;51.476;7.210;2022-12-18T10:05:12;101257.00;;;5.80
11424;BMP180;5768;51.476;7.210;2022-12-18T10:10:29;101258.00;;;6.10
11424;BMP180;5768;51.476;7.210;2022-12-18T10:15:41;101225.00;;;6.20
11424;BMP180;5768;51.476;7.210;2022-12-18T10:20:52;101215.00;;;6.50
11424;BMP180;5768;51.476;7.210;2022-12-18T10:26:03;101213.00;;;6.70
11424;BMP180;5768;51.476;7.210;2022-12-18T10:31:07;101207.00;;;6.90
11424;BMP180;5768;51.476;7.210;2022-12-18T10:36:11;101203.00;;;7.10
11424;BMP180;5768;51.476;7.210;2022-12-18T10:41:26;101179.00;;;7.30
11424;BMP180;5768;51.476;7.210;2022-12-18T10:46:29;101199.00;;;7.50
11424;BMP180;5768;51.476;7.210;2022-12-18T10:51:36;101193.00;;;7.70
11424;BMP180;5768;51.476;7.210;2022-12-18T10:56:39;101192.00;;;7.90
11424;BMP180;5768;51.476;7.210;2022-12-18T11:01:51;101180.00;;;8.00
11424;BMP180;5768;51.476;7.210;2022-12-18T11:07:01;101180.00;;;8.10
11424;BMP180;5768;51.476;7.210;2022-12-18T11:12:14;101179.00;;;8.20
11424;BMP180;5768;51.476;7.210;2022-12-18T11:17:21;101157.00;;;8.30
11424;BMP180;5768;51.476;7.210;2022-12-18T11:22:28;101164.00;;;8.40
11424;BMP180;5768;51.476;7.210;2022-12-18T11:27:31;101153.00;;;8.20
11424;BMP180;5768;51.476;7.210;2022-12-18T11:32:39;101156.00;;;8.60
11424;BMP180;5768;51.476;7.210;2022-12-18T11:37:49;101147.00;;;8.80
11424;BMP180;5768;51.476;7.210;2022-12-18T11:43:01;101135.00;;;8.90
11424;BMP180;5768;51.476;7.210;2022-12-18T11:48:17;101119.00;;;9.00
11424;BMP180;5768;51.476;7.210;2022-12-18T11:53:26;101107.00;;;9.00
11424;BMP180;5768;51.476;7.210;2022-12-18T11:58:44;101081.00;;;9.00
11424;BMP180;5768;51.476;7.210;2022-12-18T12:04:15;101092.00;;;9.10
11424;BMP180;5768;51.476;7.210;2022-12-18T12:09:34;101101.00;;;9.10
11424;BMP180;5768;51.476;7.210;2022-12-18T12:14:50;101094.00;;;9.20
11424;BMP180;5768;51.476;7.210;2022-12-18T12:20:02;101099.00;;;9.30
11424;BMP180;5768;51.476;7.210;2022-12-18T12:25:28;101096.00;;;9.40
11424;BMP180;5768;51.476;7.210;2022-12-18T12:30:48;101088.00;;;9.40
11424;BMP180;5768;51.476;7.210;2022-12-18T12:36:06;101082.00;;;9.40
11424;BMP180;5768;51.476;7.210;2022-12-18T12:41:17;101073.00;;;9.40
11424;BMP180;5768;51.476;7.210;2022-12-18T12:46:41;101070.00;;;9.40
11424;BMP180;5768;51.476;7.210;2022-12-18T12:51:56;101068.00;;;9.40
11424;BMP180;5768;51.476;7.210;2022-12-18T12:57:10;101068.00;;;9.40
11424;BMP180;5768;51.476;7.210;2022-12-18T13:02:22;101057.00;;;9.40
11424;BMP180;5768;51.476;7.210;2022-12-18T13:07:32;101064.00;;;9.40
11424;BMP180;5768;51.476;7.210;2022-12-18T13:12:53;101047.00;;;9.30
11424;BMP180;5768;51.476;7.210;2022-12-18T13:18:18;101064.00;;;9.20
11424;BMP180;5768;51.476;7.210;2022-12-18T13:23:30;101055.00;;;9.10
11424;BMP180;5768;51.476;7.210;2022-12-18T13:28:56;101053.00;;;9.10
11424;BMP180;5768;51.476;7.210;2022-12-18T13:34:17;101058.00;;;9.00
11424;BMP180;5768;51.476;7.210;2022-12-18T13:39:38;101067.00;;;9.00
11424;BMP180;5768;51.476;7.210;2022-12-18T13:44:46;101053.00;;;8.90
11424;BMP180;5768;51.476;7.210;2022-12-18T13:49:49;101047.00;;;8.80
11424;BMP180;5768;51.476;7.210;2022-12-18T13:54:55;101046.00;;;8.70
11424;BMP180;5768;51.476;7.210;2022-12-18T14:00:24;101035.00;;;8.70
11424;BMP180;5768;51.476;7.210;2022-12-18T14:05:29;101033.00;;;8.70
11424;BMP180;5768;51.476;7.210;2022-12-18T14:10:39;101008.00;;;8.50
11424;BMP180;5768;51.476;7.210;2022-12-18T14:15:47;100988.00;;;8.40
11424;BMP180;5768;51.476;7.210;2022-12-18T14:20:54;100981.00;;;8.10
11424;BMP180;5768;51.476;7.210;2022-12-18T14:26:23;100973.00;;;8.00
11424;BMP180;5768;51.476;7.210;2022-12-18T14:31:31;100955.00;;;7.90
11424;BMP180;5768;51.476;7.210;2022-12-18T14:36:33;100951.00;;;7.90
11424;BMP180;5768;51.476;7.210;2022-12-18T14:41:35;100963.00;;;7.90
11424;BMP180;5768;51.476;7.210;2022-12-18T14:46:42;100949.00;;;7.80
11424;BMP180;5768;51.476;7.210;2022-12-18T14:51:53;100940.00;;;7.70
11424;BMP180;5768;51.476;7.210;2022-12-18T14:57:01;100933.00;;;7.60
11424;BMP180;5768;51.476;7.210;2022-12-18T15:02:19;100912.00;;;7.50
11424;BMP180;5768;51.476;7.210;2022-12-18T15:07:26;100930.00;;;7.40
11424;BMP180;5768;51.476;7.210;2022-12-18T15:12:35;100921.00;;;7.20
11424;BMP180;5768;51.476;7.210;2022-12-18T15:17:39;100916.00;;;7.10
11424;BMP180;5768;51.476;7.210;2022-12-18T15:22:51;100930.00;;;7.00
11424;BMP180;5768;51.476;7.210;2022-12-18T15:27:54;100909.00;;;7.00
11424;BMP180;5768;51.476;7.210;2022-12-18T15:33:26;100893.00;;;7.00
11424;BMP180;5768;51.476;7.210;2022-12-18T15:38:30;100904.00;;;6.90
11424;BMP180;5768;51.476;7.210;2022-12-18T15:43:32;100899.00;;;6.90
11424;BMP180;5768;51.476;7.210;2022-12-18T15:48:45;100905.00;;;6.90
11424;BMP180;5768;51.476;7.210;2022-12-18T15:54:00;100887.00;;;6.90
11424;BMP180;5768;51.476;7.210;2022-12-18T15:59:10;100898.00;;;6.80
11424;BMP180;5768;51.476;7.210;2022-12-18T16:04:17;100890.00;;;6.70
11424;BMP180;5768;51.476;7.210;2022-12-18T16:09:21;100872.00;;;6.80
11424;BMP180;5768;51.476;7.210;2022-12-18T16:14:29;100892.00;;;6.80
11424;BMP180;5768;51.476;7.210;2022-12-18T16:19:39;100879.00;;;6.70
11424;BMP180;5768;51.476;7.210;2022-12-18T16:24:47;100889.00;;;6.70
11424;BMP180;5768;51.476;7.210;2022-12-18T16:29:52;100883.00;;;6.70
11424;BMP180;5768;51.476;7.210;2022-12-18T16:35:01;100913.00;;;6.70
11424;BMP180;5768;51.476;7.210;2022-12-18T16:40:15;100897.00;;;6.80
11424;BMP180;5768;51.476;7.210;2022-12-18T16:45:18;100903.00;;;6.80
11424;BMP180;5768;51.476;7.210;2022-12-18T16:50:22;100896.00;;;6.70
11424;BMP180;5768;51.476;7.210;2022-12-18T16:55:28;100918.00;;;6.60
11424;BMP180;5768;51.476;7.210;2022-12-18T17:00:33;100909.00;;;6.50
11424;BMP180;5768;51.476;7.210;2022-12-18T17:05:39;100909.00;;;6.50
11424;BMP180;5768;51.476;7.210;2022-12-18T17:10:45;100877.00;;;6.50
11424;BMP180;5768;51.476;7.210;2022-12-18T17:15:48;100858.00;;;6.40
11424;BMP180;5768;51.476;7.210;2022-12-18T17:20:52;100835.00;;;6.30
11424;BMP180;5768;51.476;7.210;2022-12-18T17:25:59;100845.00;;;6.30
11424;BMP180;5768;51.476;7.210;2022-12-18T17:31:13;100850.00;;;6.30
11424;BMP180;5768;51.476;7.210;2022-12-18T17:36:17;100850.00;;;6.40
11424;BMP180;5768;51.476;7.210;2022-12-18T17:41:23;100861.00;;;6.30
11424;BMP180;5768;51.476;7.210;2022-12-18T17:46:28;100846.00;;;6.30
11424;BMP180;5768;51.476;7.210;2022-12-18T17:51:33;100857.00;;;6.30
11424;BMP180;5768;51.476;7.210;2022-12-18T17:56:42;100858.00;;;6.30
11424;BMP180;5768;51.476;7.210;2022-12-18T18:01:44;100870.00;;;6.20
11424;BMP180;5768;51.476;7.210;2022-12-18T18:06:48;100854.00;;;6.20
11424;BMP180;5768;51.476;7.210;2022-12-18T18:11:50;100844.00;;;6.20
11424;BMP180;5768;51.476;7.210;2022-12-18T18:17:18;100851.00;;;6.20
11424;BMP180;5768;51.476;7.210;2022-12-18T18:22:25;100845.00;;;6.10
11424;BMP180;5768;51.476;7.210;2022-12-18T18:27:27;100849.00;;;6.10
11424;BMP180;5768;51.476;7.210;2022-12-18T18:32:29;100849.00;;;6.00
11424;BMP180;5768;51.476;7.210;2022-12-18T18:37:34;100871.00;;;6.00
11424;BMP180;5768;51.476;7.210;2022-12-18T18:42:36;100865.00;;;6.00
11424;BMP180;5768;51.476;7.210;2022-12-18T18:47:40;100860.00;;;6.00
11424;BMP180;5768;51.476;7.210;2022-12-18T18:52:43;100867.00;;;6.00
11424;BMP180;5768;51.476;7.210;2022-12-18T18:57:46;100866.00;;;6.00
11424;BMP180;5768;51.476;7.210;2022-12-18T19:02:49;100866.00;;;5.90
11424;BMP180;5768;51.476;7.210;2022-12-18T19:07:54;100885.00;;;6.00
11424;BMP180;5768;51.476;7.210;2022-12-18T19:12:57;100892.00;;;6.00
11424;BMP180;5768;51.476;7.210;2022-12-18T19:18:17;100879.00;;;6.00
11424;BMP180;5768;51.476;7.210;2022-12-18T19:23:21;100879.00;;;6.00
11424;BMP180;5768;51.476;7.210;2022-12-18T19:28:23;100865.00;;;6.00
11424;BMP180;5768;51.476;7.210;2022-12-18T19:33:31;100865.00;;;6.10
11424;BMP180;5768;51.476;7.210;2022-12-18T19:38:35;100868.00;;;6.10
11424;BMP180;5768;51.476;7.210;2022-12-18T19:43:37;100857.00;;;6.10
11424;BMP180;5768;51.476;7.210;2022-12-18T19:48:41;100855.00;;;6.10
11424;BMP180;5768;51.476;7.210;2022-12-18T19:53:45;100845.00;;;6.10
11424;BMP180;5768;51.476;7.210;2022-12-18T19:58:48;100854.00;;;6.10
11424;BMP180;5768;51.476;7.210;2022-12-18T20:03:50;100848.00;;;6.10
11424;BMP180;5768;51.476;7.210;2022-12-18T20:09:01;100839.00;;;6.10
11424;BMP180;5768;51.476;7.210;2022-12-18T20:14:06;100848.00;;;6.10
11424;BMP180;5768;51.476;7.210;2022-12-18T20:19:09;100830.00;;;6.20
11424;BMP180;5768;51.476;7.210;2022-12-18T20:24:17;100849.00;;;6.30
11424;BMP180;5768;51.476;7.210;2022-12-18T20:29:19;100845.00;;;6.40
11424;BMP180;5768;51.476;7.210;2022-12-18T20:34:21;100838.00;;;6.40
11424;BMP180;5768;51.476;7.210;2022-12-18T20:39:25;100850.00;;;6.50
11424;BMP180;5768;51.476;7.210;2022-12-18T20:44:28;100837.00;;;6.60
11424;BMP180;5768;51.476;7.210;2022-12-18T20:49:30;100852.00;;;6.60
11424;BMP180;5768;51.476;7.210;2022-12-18T20:54:34;100850.00;;;6.70
11424;BMP180;5768;51.476;7.210;2022-12-18T20:59:40;100843.00;;;6.70
11424;BMP180;5768;51.476;7.210;2022-12-18T21:04:42;100835.00;;;6.70
11424;BMP180;5768;51.476;7.210;2022-12-18T21:09:46;100822.00;;;6.80
11424;BMP180;5768;51.476;7.210;2022-12-18T21:14:48;100827.00;;;6.80
11424;BMP180;5768;51.476;7.210;2022-12-18T21:19:50;100824.00;;;6.80
11424;BMP180;5768;51.476;7.210;2022-12-18T21:24:55;100832.00;;;6.80
11424;BMP180;5768;51.476;7.210;2022-12-18T21:29:57;100837.00;;;6.80
11424;BMP180;5768;51.476;7.210;2022-12-18T21:35:00;100834.00;;;6.80
11424;BMP180;5768;51.476;7.210;2022-12-18T21:40:05;100839.00;;;6.70
11424;BMP180;5768;51.476;7.210;2022-12-18T21:45:09;100838.00;;;6.70
11424;BMP180;5768;51.476;7.210;2022-12-18T21:50:11;100831.00;;;6.70
11424;BMP180;5768;51.476;7.210;2022-12-18T21:55:15;100836.00;;;6.70
11424;BMP180;5768;51.476;7.210;2022-12-18T22:00:18;100831.00;;;6.70
11424;BMP180;5768;51.476;7.210;2022-12-18T22:05:20;100826.00;;;6.80
11424;BMP180;5768;51.476;7.210;2022-12-18T22:10:24;100818.00;;;6.70
11424;BMP180;5768;51.476;7.210;2022-12-18T22:15:26;100803.00;;;6.80
11424;BMP180;5768;51.476;7.210;2022-12-18T22:20:29;100792.00;;;6.80
11424;BMP180;5768;51.476;7.210;2022-12-18T22:25:33;100791.00;;;6.70
11424;BMP180;5768;51.476;7.210;2022-12-18T22:30:35;100781.00;;;6.70
11424;BMP180;5768;51.476;7.210;2022-12-18T22:35:37;100777.00;;;6.70
11424;BMP180;5768;51.476;7.210;2022-12-18T22:40:41;100771.00;;;6.70
11424;BMP180;5768;51.476;7.210;2022-12-18T22:45:46;100761.00;;;6.70
11424;BMP180;5768;51.476;7.210;2022-12-18T22:50:49;100762.00;;;6.70
11424;BMP180;5768;51.476;7.210;2022-12-18T22:55:59;100767.00;;;6.70
11424;BMP180;5768;51.476;7.210;2022-12-18T23:01:04;100766.00;;;6.70
11424;BMP180;5768;51.476;7.210;2022-12-18T23:06:10;100741.00;;;6.80
11424;BMP180;5768;51.476;7.210;2022-12-18T23:11:18;100742.00;;;6.80
11424;BMP180;5768;51.476;7.210;2022-12-18T23:16:21;100744.00;;;6.80
11424;BMP180;5768;51.476;7.210;2022-12-18T23:21:23;100737.00;;;6.80
11424;BMP180;5768;51.476;7.210;2022-12-18T23:26:27;100726.00;;;6.80
11424;BMP180;5768;51.476;7.210;2022-12-18T23:31:31;100718.00;;;6.80
11424;BMP180;5768;51.476;7.210;2022-12-18T23:36:34;100696.00;;;6.80
11424;BMP180;5768;51.476;7.210;2022-12-18T23:41:37;100690.00;;;6.80
11424;BMP180;5768;51.476;7.210;2022-12-18T23:46:40;100690.00;;;6.90
11424;BMP180;5768;51.476;7.210;2022-12-18T23:51:42;100686.00;;;6.90
11424;BMP180;5768;51.476;7.210;2022-12-18T23:56:46;100682.00;;;6.90
